Time;durP1;ratioP1;P1;durP2;ratioP2;P2;SDS_P1;SDS_P2;PMS_P1;PMS_P2;Temp;Humidity;BMP_temperature;BMP_pressure;BME280_temperature;BME280_humidity;BME280_pressure;Samples;Min_cycle;Max_cycle;Signal;HPM_P1;HPM_P2
2022/03/10 00:01:38;;;;;;;48.45;35.13;;;25.60;99.70;;;;;;4226517;28;20136;-67
2022/03/10 00:03:45;;;;;;;44.80;34.05;;;25.60;99.70;;;;;;4228082;28;20112;-67
2022/03/10 00:05:49;;;;;;;47.90;33.22;;;25.60;99.80;;;;;;4222110;28;20040;-66
2022/03/10 00:07:54;;;;;;;44.75;33.17;;;25.60;99.50;;;;;;4221525;28;20054;-68
2022/03/10 00:09:59;;;;;;;47.95;34.75;;;25.60;99.10;;;;;;4214178;28;20071;-67
2022/03/10 00:12:03;;;;;;;50.45;34.67;;;25.60;99.10;;;;;;4215305;28;20056;-68
2022/03/10 00:14:10;;;;;;;44.83;33.85;;;25.60;99.20;;;;;;4219444;28;20674;-68
2022/03/10 00:16:17;;;;;;;43.22;33.70;;;25.70;99.30;;;;;;4218994;28;20051;-68
2022/03/10 00:18:22;;;;;;;46.20;34.50;;;25.70;99.10;;;;;;4219922;28;20142;-67
2022/03/10 00:20:26;;;;;;;48.95;35.28;;;25.70;99.00;;;;;;4214667;28;20079;-67
2022/03/10 00:22:31;;;;;;;48.20;34.60;;;25.70;99.00;;;;;;4216551;28;20046;-67
2022/03/10 00:24:35;;;;;;;50.03;34.78;;;25.70;99.00;;;;;;4194999;28;20102;-67
2022/03/10 00:26:39;;;;;;;42.88;32.17;;;25.70;99.00;;;;;;4195894;28;20063;-67
2022/03/10 00:28:47;;;;;;;44.60;33.03;;;25.80;98.60;;;;;;4228677;28;20131;-66
2022/03/10 00:30:52;;;;;;;43.40;31.23;;;25.80;98.10;;;;;;4210119;28;20072;-67
2022/03/10 00:32:57;;;;;;;40.95;31.50;;;25.80;97.80;;;;;;4224683;28;20075;-66
2022/03/10 00:35:05;;;;;;;42.25;33.08;;;25.80;97.80;;;;;;4231097;28;20493;-67
2022/03/10 00:37:10;;;;;;;43.30;32.35;;;25.80;97.70;;;;;;4229821;28;20052;-66
2022/03/10 00:39:14;;;;;;;38.50;31.63;;;25.90;97.70;;;;;;4229578;28;20086;-66
2022/03/10 00:41:24;;;;;;;39.80;30.10;;;25.90;97.80;;;;;;4228343;28;20048;-66
2022/03/10 00:43:29;;;;;;;41.83;31.98;;;25.90;97.60;;;;;;4229907;28;20062;-68
2022/03/10 00:45:33;;;;;;;52.45;37.05;;;26.00;97.20;;;;;;4212026;28;20418;-67
2022/03/10 00:47:39;;;;;;;57.97;39.05;;;26.00;97.20;;;;;;4229503;28;20103;-67
2022/03/10 00:49:44;;;;;;;69.80;36.60;;;26.00;97.20;;;;;;4228912;28;20043;-70
2022/03/10 00:51:50;;;;;;;54.63;34.58;;;26.10;97.20;;;;;;4209325;28;20102;-70
2022/03/10 00:53:59;;;;;;;52.88;32.65;;;26.20;97.20;;;;;;4221244;28;20100;-68
2022/03/10 00:56:03;;;;;;;41.83;31.40;;;26.20;97.00;;;;;;4218433;28;20068;-67
2022/03/10 00:58:08;;;;;;;45.00;33.42;;;26.30;96.80;;;;;;4222433;28;20104;-68
2022/03/10 01:00:15;;;;;;;45.13;31.92;;;26.40;96.80;;;;;;4224345;28;20494;-68
2022/03/10 01:02:19;;;;;;;40.47;30.30;;;26.40;96.80;;;;;;4220361;28;20066;-68
2022/03/10 01:04:24;;;;;;;44.05;30.50;;;26.40;96.80;;;;;;4228556;28;20051;-67
2022/03/10 01:06:30;;;;;;;46.28;31.10;;;26.40;96.90;;;;;;4213525;28;20823;-68
2022/03/10 01:08:35;;;;;;;44.25;33.92;;;26.40;96.60;;;;;;4221182;28;20040;-69
2022/03/10 01:10:39;;;;;;;59.33;39.28;;;26.40;96.60;;;;;;4221243;28;20499;-70
2022/03/10 01:12:49;;;;;;;57.53;37.33;;;26.30;96.50;;;;;;4227550;28;20031;-67
2022/03/10 01:14:54;;;;;;;101.85;56.35;;;26.40;96.30;;;;;;4207561;28;20090;-67
2022/03/10 01:16:58;;;;;;;84.38;45.45;;;26.50;96.10;;;;;;4213005;28;20052;-68
2022/03/10 01:19:08;;;;;;;67.68;39.75;;;26.50;95.90;;;;;;4223923;28;20043;-67
2022/03/10 01:21:12;;;;;;;55.75;34.92;;;26.40;95.80;;;;;;4229834;28;20039;-68
2022/03/10 01:23:17;;;;;;;40.10;27.48;;;26.50;95.70;;;;;;4211070;28;20768;-67
2022/03/10 01:25:26;;;;;;;43.03;26.58;;;26.60;95.70;;;;;;4220108;28;20244;-67
2022/03/10 01:27:31;;;;;;;41.50;26.05;;;26.60;95.50;;;;;;4229844;28;20047;-67
2022/03/10 01:29:35;;;;;;;34.70;24.65;;;26.50;95.20;;;;;;4221292;28;20448;-68
2022/03/10 01:31:44;;;;;;;39.45;24.23;;;26.60;95.10;;;;;;4209997;28;20567;-66
2022/03/10 01:33:48;;;;;;;30.33;19.90;;;26.60;95.20;;;;;;4209464;28;20048;-67
2022/03/10 01:35:55;;;;;;;30.70;20.42;;;26.60;94.90;;;;;;4206264;28;20032;-67
2022/03/10 01:38:01;;;;;;;34.80;21.20;;;26.50;95.30;;;;;;4213944;28;20090;-67
2022/03/10 01:40:07;;;;;;;33.80;20.73;;;26.60;95.30;;;;;;4198687;28;20048;-67
2022/03/10 01:42:12;;;;;;;27.02;19.95;;;26.70;95.20;;;;;;4210220;28;20151;-67
2022/03/10 01:44:21;;;;;;;27.50;19.50;;;26.80;95.00;;;;;;4214778;28;20044;-67
2022/03/10 01:46:26;;;;;;;33.25;20.38;;;26.90;95.00;;;;;;4216210;28;20052;-67
2022/03/10 01:48:30;;;;;;;29.92;19.77;;;27.00;95.00;;;;;;4228198;28;20051;-67
2022/03/10 01:50:38;;;;;;;26.75;19.65;;;27.10;95.00;;;;;;4216858;28;20043;-67
2022/03/10 01:52:42;;;;;;;26.20;16.98;;;27.10;94.80;;;;;;4220188;28;20109;-66
2022/03/10 01:54:46;;;;;;;25.85;16.77;;;27.00;94.10;;;;;;4210073;28;20040;-67
2022/03/10 01:56:55;;;;;;;25.48;17.40;;;27.00;93.80;;;;;;4211026;28;20738;-66
2022/03/10 01:58:59;;;;;;;30.23;17.58;;;27.10;93.90;;;;;;4227404;28;20063;-66
2022/03/10 02:01:04;;;;;;;27.33;17.80;;;27.00;93.80;;;;;;4220019;28;20043;-66
2022/03/10 02:03:12;;;;;;;24.73;17.23;;;27.10;93.80;;;;;;4218123;28;20047;-68
2022/03/10 02:05:17;;;;;;;29.15;16.88;;;27.20;93.90;;;;;;4216341;28;20048;-67
2022/03/10 02:11:59;;;;;;;26.65;16.88;;;27.20;93.50;;;;;;4223094;28;20039;-68
2022/03/10 02:17:19;;;;;;;24.63;17.45;;;27.20;93.40;;;;;;4225951;28;20139;-66
2022/03/10 02:18:49;;;;;;;25.48;17.25;;;27.30;93.30;;;;;;4224614;28;20056;-67
2022/03/10 02:20:54;;;;;;;27.80;17.40;;;27.30;93.20;;;;;;4202039;28;20433;-68
2022/03/10 02:23:03;;;;;;;26.25;17.13;;;27.40;93.20;;;;;;4212065;28;20059;-67
2022/03/10 02:25:08;;;;;;;27.15;17.45;;;27.50;93.00;;;;;;4197566;28;20454;-67
2022/03/10 02:27:21;;;;;;;31.42;18.33;;;27.50;93.10;;;;;;4206067;28;20078;-68
2022/03/10 02:29:27;;;;;;;24.40;16.27;;;27.60;93.00;;;;;;4225864;28;20501;-67
2022/03/10 02:31:32;;;;;;;26.67;16.75;;;27.70;93.10;;;;;;4215693;28;20161;-67
2022/03/10 02:33:37;;;;;;;23.27;16.65;;;27.70;93.20;;;;;;4213425;28;20040;-68
2022/03/10 02:35:45;;;;;;;24.77;15.75;;;27.80;93.20;;;;;;4220850;28;20524;-69
2022/03/10 02:37:50;;;;;;;24.92;16.08;;;27.90;93.20;;;;;;4213217;28;20066;-67
2022/03/10 02:39:55;;;;;;;23.10;16.17;;;28.00;93.00;;;;;;4215628;28;20101;-67
2022/03/10 02:42:03;;;;;;;26.00;16.40;;;28.00;93.00;;;;;;4222151;28;20044;-67
2022/03/10 02:44:10;;;;;;;26.38;16.20;;;28.10;92.90;;;;;;4219178;28;20075;-67
2022/03/10 02:46:15;;;;;;;26.23;15.82;;;28.10;92.70;;;;;;4213445;28;20067;-68
2022/03/10 02:48:25;;;;;;;22.02;14.93;;;28.10;92.30;;;;;;4219422;28;20130;-66
2022/03/10 02:50:29;;;;;;;21.73;15.02;;;28.10;92.00;;;;;;4218270;28;20043;-66
2022/03/10 02:52:37;;;;;;;23.60;15.15;;;28.10;92.10;;;;;;4219644;28;20127;-67
2022/03/10 02:54:45;;;;;;;22.90;15.93;;;28.20;92.20;;;;;;4213485;28;20563;-68
2022/03/10 02:56:49;;;;;;;23.15;16.17;;;28.20;92.30;;;;;;4219279;28;20300;-68
2022/03/10 02:58:53;;;;;;;26.27;15.32;;;28.30;92.30;;;;;;4216893;28;20109;-68
2022/03/10 03:01:02;;;;;;;24.58;15.75;;;28.30;91.90;;;;;;4213457;28;20067;-66
2022/03/10 03:03:06;;;;;;;22.10;15.32;;;28.30;92.00;;;;;;4222822;28;20071;-67
2022/03/10 03:05:15;;;;;;;26.40;15.48;;;28.40;91.70;;;;;;4220827;28;20058;-66
2022/03/10 03:07:21;;;;;;;25.50;15.07;;;28.40;91.60;;;;;;4187721;28;20041;-67
2022/03/10 03:09:25;;;;;;;23.10;15.13;;;28.50;91.70;;;;;;4213795;28;20044;-68
2022/03/10 03:11:30;;;;;;;21.83;14.65;;;28.50;91.90;;;;;;4220332;28;20694;-67
2022/03/10 03:13:38;;;;;;;25.65;15.98;;;28.60;91.90;;;;;;4214868;28;20040;-68
2022/03/10 03:15:43;;;;;;;25.95;16.75;;;28.60;91.40;;;;;;4197748;28;20042;-66
2022/03/10 03:17:47;;;;;;;22.92;15.35;;;28.60;91.70;;;;;;4201889;28;20048;-67
2022/03/10 03:19:54;;;;;;;23.73;15.90;;;28.60;91.70;;;;;;4231167;28;20082;-67
2022/03/10 03:21:59;;;;;;;23.27;15.95;;;28.70;91.80;;;;;;4223587;28;20769;-67
2022/03/10 03:24:04;;;;;;;25.33;16.45;;;28.80;91.90;;;;;;4218049;28;20120;-67
2022/03/10 03:26:12;;;;;;;21.48;16.75;;;28.80;92.00;;;;;;4198717;28;20143;-66
2022/03/10 03:28:17;;;;;;;23.13;15.82;;;28.90;91.50;;;;;;4186960;28;20059;-69
2022/03/10 03:30:21;;;;;;;25.77;16.08;;;28.90;91.60;;;;;;4192139;28;20044;-69
2022/03/10 03:32:30;;;;;;;22.77;17.15;;;28.90;91.90;;;;;;4211813;28;20044;-69
2022/03/10 03:34:35;;;;;;;25.92;16.10;;;29.00;91.90;;;;;;4212314;28;20074;-68
2022/03/10 03:36:40;;;;;;;23.52;16.13;;;29.10;91.90;;;;;;4211804;28;20039;-68
2022/03/10 03:38:48;;;;;;;26.55;17.05;;;29.10;91.90;;;;;;4212055;28;20044;-68
2022/03/10 03:40:53;;;;;;;23.75;16.77;;;29.20;91.70;;;;;;4212264;28;20044;-68
2022/03/10 03:42:57;;;;;;;27.40;17.20;;;29.20;91.90;;;;;;4213230;28;20046;-69
2022/03/10 03:45:09;;;;;;;27.52;16.85;;;29.30;91.90;;;;;;4209575;28;20051;-68
2022/03/10 03:47:13;;;;;;;30.15;18.38;;;29.30;91.20;;;;;;4209754;28;20052;-68
2022/03/10 03:49:18;;;;;;;25.02;17.35;;;29.40;91.20;;;;;;4214601;28;20422;-67
2022/03/10 03:51:24;;;;;;;34.42;17.10;;;29.50;91.30;;;;;;4213555;28;20078;-67
2022/03/10 03:53:28;;;;;;;22.85;16.42;;;29.50;91.00;;;;;;4211342;28;20043;-66
2022/03/10 03:55:33;;;;;;;23.80;17.15;;;29.50;91.00;;;;;;4213688;28;20106;-66
2022/03/10 03:57:44;;;;;;;26.38;17.45;;;29.60;91.10;;;;;;4214663;28;20063;-67
2022/03/10 03:59:48;;;;;;;23.35;17.00;;;29.60;90.90;;;;;;4219116;28;20056;-67
2022/03/10 04:01:53;;;;;;;23.80;17.02;;;29.70;90.60;;;;;;4216604;28;20079;-66
2022/03/10 04:04:02;;;;;;;25.67;17.52;;;29.70;90.50;;;;;;4195017;28;20636;-68
2022/03/10 04:06:07;;;;;;;25.17;17.20;;;29.70;90.50;;;;;;4195598;28;20535;-67
2022/03/10 04:08:11;;;;;;;27.58;17.10;;;29.80;90.20;;;;;;4194271;28;20047;-67
2022/03/10 04:10:18;;;;;;;24.90;17.67;;;29.80;90.40;;;;;;4213052;28;20119;-67
2022/03/10 04:12:23;;;;;;;25.50;18.25;;;29.80;90.30;;;;;;4214562;28;20104;-68
2022/03/10 04:14:28;;;;;;;22.95;16.67;;;29.90;89.30;;;;;;4178621;28;20407;-68
2022/03/10 04:16:38;;;;;;;28.45;18.20;;;29.90;89.60;;;;;;4211719;28;20047;-68
2022/03/10 04:18:43;;;;;;;27.08;17.58;;;29.90;89.80;;;;;;4211060;28;20186;-67
2022/03/10 04:20:48;;;;;;;25.73;18.20;;;30.00;90.00;;;;;;4215820;28;20059;-67
2022/03/10 04:22:57;;;;;;;25.80;17.55;;;30.10;90.20;;;;;;4195021;28;20078;-67
2022/03/10 04:25:01;;;;;;;24.48;17.38;;;30.10;90.20;;;;;;4214103;28;20066;-68
2022/03/10 04:27:07;;;;;;;28.95;18.52;;;30.10;90.10;;;;;;4208047;28;20071;-68
2022/03/10 04:29:14;;;;;;;25.52;17.27;;;30.20;89.90;;;;;;4215637;28;20800;-67
2022/03/10 04:31:18;;;;;;;22.75;17.35;;;30.20;90.00;;;;;;4215353;28;20047;-67
2022/03/10 04:33:23;;;;;;;29.13;18.05;;;30.20;89.90;;;;;;4212147;28;20145;-67
2022/03/10 04:35:30;;;;;;;24.25;16.38;;;30.20;90.00;;;;;;4224719;28;20581;-67
2022/03/10 04:37:34;;;;;;;24.33;16.73;;;30.30;90.20;;;;;;4208572;28;21050;-69
2022/03/10 04:39:42;;;;;;;25.80;16.90;;;30.40;90.20;;;;;;4212776;28;20662;-67
2022/03/10 04:41:48;;;;;;;24.67;16.60;;;30.50;89.90;;;;;;4211363;28;20085;-68
2022/03/10 04:43:53;;;;;;;26.05;16.48;;;30.50;89.30;;;;;;4219518;28;20056;-67
2022/03/10 04:46:00;;;;;;;23.85;15.60;;;30.50;88.10;;;;;;4214147;28;20575;-68
2022/03/10 04:48:10;;;;;;;29.55;15.80;;;30.50;87.40;;;;;;4217328;28;20565;-67
2022/03/10 04:50:16;;;;;;;24.35;16.55;;;30.50;85.50;;;;;;4218533;28;20040;-67
2022/03/10 04:52:20;;;;;;;22.80;15.18;;;30.50;86.20;;;;;;4216632;28;20044;-69
2022/03/10 04:54:28;;;;;;;22.25;15.25;;;30.60;87.00;;;;;;4189366;28;20078;-68
2022/03/10 04:56:33;;;;;;;22.30;15.70;;;30.60;87.70;;;;;;4219340;28;20786;-67
2022/03/10 04:58:38;;;;;;;23.67;15.90;;;30.60;88.10;;;;;;4209386;28;20065;-66
2022/03/10 05:00:46;;;;;;;20.63;15.93;;;30.60;88.40;;;;;;4216117;28;20596;-69
2022/03/10 05:02:51;;;;;;;20.45;15.10;;;30.70;88.60;;;;;;4212641;28;20550;-68
2022/03/10 05:04:56;;;;;;;24.45;16.23;;;30.80;88.00;;;;;;4212142;28;20048;-68
2022/03/10 05:07:01;;;;;;;20.88;15.48;;;30.90;87.30;;;;;;4199579;28;20052;-68
2022/03/10 05:09:07;;;;;;;21.45;15.20;;;30.90;87.50;;;;;;4197579;28;20071;-70
2022/03/10 05:11:15;;;;;;;23.85;15.25;;;30.90;87.20;;;;;;4199095;28;20110;-67
2022/03/10 05:13:24;;;;;;;21.52;15.93;;;30.90;86.90;;;;;;4173947;28;20103;-67
2022/03/10 05:15:32;;;;;;;23.63;16.05;;;31.00;86.50;;;;;;4205062;28;20089;-67
2022/03/10 05:17:37;;;;;;;22.02;15.18;;;31.00;86.90;;;;;;4209462;28;20386;-67
2022/03/10 05:19:46;;;;;;;19.33;15.02;;;31.00;86.40;;;;;;4211096;28;20509;-66
2022/03/10 05:21:50;;;;;;;21.95;14.60;;;31.00;86.30;;;;;;4211290;28;20573;-66
2022/03/10 05:23:55;;;;;;;18.25;14.80;;;31.10;86.30;;;;;;4217582;28;20044;-67
2022/03/10 05:26:04;;;;;;;21.30;15.07;;;31.10;86.30;;;;;;4212505;28;20044;-68
2022/03/10 05:28:14;;;;;;;17.88;14.98;;;31.20;85.60;;;;;;4215021;28;20093;-67
2022/03/10 05:30:19;;;;;;;18.88;13.73;;;31.20;85.50;;;;;;4223697;28;20059;-68
2022/03/10 05:32:26;;;;;;;17.52;13.40;;;31.30;83.80;;;;;;4228965;28;20409;-67
2022/03/10 05:34:30;;;;;;;18.83;14.05;;;31.30;83.80;;;;;;4217394;28;20394;-68
2022/03/10 05:36:34;;;;;;;22.30;13.55;;;31.30;82.90;;;;;;4212217;28;20040;-68
2022/03/10 05:38:44;;;;;;;21.00;13.65;;;31.30;83.20;;;;;;4210225;28;20048;-68
2022/03/10 05:40:49;;;;;;;17.40;12.93;;;31.30;83.10;;;;;;4211776;28;20642;-68
2022/03/10 05:42:54;;;;;;;19.15;13.63;;;31.30;81.80;;;;;;4212361;28;20376;-68
2022/03/10 05:45:03;;;;;;;19.45;13.48;;;31.40;81.90;;;;;;4212602;28;20274;-68
2022/03/10 05:47:10;;;;;;;20.75;13.38;;;31.40;82.90;;;;;;4211470;28;20048;-68
2022/03/10 05:49:14;;;;;;;20.75;13.40;;;31.40;83.80;;;;;;4209111;28;20456;-67
2022/03/10 05:51:23;;;;;;;18.30;12.80;;;31.50;83.50;;;;;;4212279;28;20052;-68
2022/03/10 05:53:28;;;;;;;15.82;11.85;;;31.60;83.50;;;;;;4211880;28;20410;-68
2022/03/10 05:55:32;;;;;;;17.40;12.93;;;31.60;82.70;;;;;;4211866;28;20559;-68
2022/03/10 05:57:41;;;;;;;17.70;12.00;;;31.70;81.40;;;;;;4213919;28;20116;-68
2022/03/10 05:59:45;;;;;;;21.92;13.40;;;31.70;82.00;;;;;;4213037;28;20043;-68
2022/03/10 06:01:50;;;;;;;18.25;13.02;;;31.70;82.50;;;;;;4212660;28;20063;-68
2022/03/10 06:03:58;;;;;;;15.18;11.55;;;31.80;82.10;;;;;;4213712;28;20067;-68
2022/03/10 06:06:02;;;;;;;17.75;12.27;;;31.80;81.90;;;;;;4212013;28;20082;-68
2022/03/10 06:08:07;;;;;;;18.58;12.10;;;31.90;81.80;;;;;;4225004;28;20834;-68
2022/03/10 06:10:16;;;;;;;17.60;12.55;;;31.90;81.40;;;;;;4211283;28;20050;-67
2022/03/10 06:12:25;;;;;;;19.80;12.35;;;31.90;81.50;;;;;;4217524;28;20052;-68
2022/03/10 06:14:29;;;;;;;19.65;13.52;;;31.90;81.60;;;;;;4218890;28;20032;-68
2022/03/10 06:16:38;;;;;;;17.27;12.35;;;32.00;81.30;;;;;;4216121;28;20553;-68
2022/03/10 06:18:43;;;;;;;16.75;12.48;;;32.00;81.10;;;;;;4218416;28;20147;-68
2022/03/10 06:20:47;;;;;;;18.88;12.55;;;32.00;80.60;;;;;;4219552;28;20040;-68
2022/03/10 06:22:56;;;;;;;16.70;12.45;;;32.00;80.20;;;;;;4202391;28;20072;-68
2022/03/10 06:25:01;;;;;;;16.08;12.27;;;32.00;80.30;;;;;;4207292;28;20048;-68
2022/03/10 06:27:06;;;;;;;15.60;11.88;;;32.10;80.60;;;;;;4215448;28;20494;-68
2022/03/10 06:29:15;;;;;;;19.13;12.10;;;32.10;80.40;;;;;;4211685;28;20494;-68
2022/03/10 06:31:19;;;;;;;16.25;11.68;;;32.20;80.60;;;;;;4211562;28;20071;-68
2022/03/10 06:33:24;;;;;;;15.98;11.80;;;32.20;80.40;;;;;;4217106;28;20055;-68
2022/03/10 06:35:33;;;;;;;16.90;12.95;;;32.20;80.60;;;;;;4219667;28;20043;-68
2022/03/10 06:37:39;;;;;;;16.98;12.68;;;32.30;80.50;;;;;;4204036;28;20124;-68
2022/03/10 06:39:44;;;;;;;16.65;12.20;;;32.20;80.90;;;;;;4214063;28;20044;-68
2022/03/10 06:41:52;;;;;;;17.10;12.60;;;32.20;80.30;;;;;;4213543;28;20058;-68
2022/03/10 06:43:56;;;;;;;17.77;12.57;;;32.30;78.80;;;;;;4217950;28;20479;-68
2022/03/10 06:46:01;;;;;;;15.27;12.93;;;32.30;79.40;;;;;;4231365;28;20051;-67
2022/03/10 06:48:10;;;;;;;14.77;12.70;;;32.20;79.10;;;;;;4217490;28;20056;-69
2022/03/10 06:50:14;;;;;;;18.55;11.93;;;32.20;79.40;;;;;;4213100;28;20043;-68
2022/03/10 06:52:20;;;;;;;17.35;12.25;;;32.30;77.90;;;;;;4213031;28;20036;-68
2022/03/10 06:54:28;;;;;;;18.08;12.23;;;32.20;78.20;;;;;;4214559;28;20571;-68
2022/03/10 06:56:32;;;;;;;17.33;12.48;;;32.20;79.00;;;;;;4214314;28;20036;-67
2022/03/10 06:58:37;;;;;;;16.05;11.73;;;32.30;78.70;;;;;;4213868;28;20040;-67
2022/03/10 07:00:45;;;;;;;16.92;11.65;;;32.30;76.80;;;;;;4215311;28;20044;-68
2022/03/10 07:02:52;;;;;;;17.42;12.10;;;32.30;77.70;;;;;;4215613;28;20043;-67
2022/03/10 07:04:57;;;;;;;15.93;11.70;;;32.30;77.40;;;;;;4212908;28;20429;-68
2022/03/10 07:07:05;;;;;;;16.48;11.00;;;32.20;77.10;;;;;;4196896;28;20526;-68
2022/03/10 07:09:09;;;;;;;15.05;11.50;;;32.30;77.10;;;;;;4212910;28;20072;-68
2022/03/10 07:11:13;;;;;;;15.23;11.30;;;32.30;76.90;;;;;;4209769;28;20071;-68
2022/03/10 07:13:20;;;;;;;15.45;11.23;;;32.30;77.70;;;;;;4213886;28;20105;-68
2022/03/10 07:15:29;;;;;;;15.45;11.80;;;32.30;77.90;;;;;;4212779;28;20127;-68
2022/03/10 07:17:34;;;;;;;14.07;11.20;;;32.40;77.60;;;;;;4211198;28;20047;-68
2022/03/10 07:19:41;;;;;;;16.50;11.30;;;32.50;77.70;;;;;;4214569;28;20062;-68
2022/03/10 07:21:46;;;;;;;13.48;11.25;;;32.50;77.50;;;;;;4213630;28;20056;-68
2022/03/10 07:23:50;;;;;;;17.98;11.82;;;32.50;77.20;;;;;;4211811;28;20109;-68
2022/03/10 07:25:55;;;;;;;16.42;11.70;;;32.50;76.60;;;;;;4212588;28;20105;-68
2022/03/10 07:27:59;;;;;;;17.15;11.48;;;32.50;76.30;;;;;;4214503;28;20541;-68
2022/03/10 07:30:05;;;;;;;14.88;11.00;;;32.50;76.30;;;;;;4203304;28;20048;-68
2022/03/10 07:32:09;;;;;;;14.93;11.68;;;32.60;75.60;;;;;;4224605;28;20082;-68
2022/03/10 07:34:14;;;;;;;14.25;11.15;;;32.60;76.00;;;;;;4216233;28;20131;-68
2022/03/10 07:36:18;;;;;;;13.93;11.73;;;32.60;76.00;;;;;;4214407;28;20425;-67
2022/03/10 07:38:25;;;;;;;14.85;10.90;;;32.60;76.00;;;;;;4213329;28;20673;-68
2022/03/10 07:40:29;;;;;;;13.70;11.15;;;32.60;75.20;;;;;;4212704;28;20059;-68
2022/03/10 07:42:35;;;;;;;15.00;11.32;;;32.60;76.00;;;;;;4214830;28;20162;-68
2022/03/10 07:44:44;;;;;;;14.90;11.48;;;32.60;76.10;;;;;;4217315;28;20044;-68
2022/03/10 07:46:48;;;;;;;13.35;11.13;;;32.60;76.20;;;;;;4217219;28;20056;-68
2022/03/10 07:48:53;;;;;;;16.50;11.48;;;32.70;75.50;;;;;;4213837;28;20475;-68
2022/03/10 07:51:02;;;;;;;13.98;11.30;;;32.60;76.20;;;;;;4215781;28;20048;-69
2022/03/10 07:53:05;;;;;;;15.02;11.77;;;32.80;76.00;;;;;;4213054;28;20083;-68
2022/03/10 07:55:13;;;;;;;17.35;11.77;;;32.80;75.30;;;;;;4213530;28;20467;-68
2022/03/10 07:57:21;;;;;;;18.17;11.05;;;32.80;75.10;;;;;;4213844;28;20040;-68
2022/03/10 07:59:26;;;;;;;16.15;10.98;;;32.70;75.20;;;;;;4209728;28;20059;-68
2022/03/10 08:01:31;;;;;;;15.88;10.43;;;32.80;74.20;;;;;;4213061;28;20063;-67
2022/03/10 08:03:39;;;;;;;13.93;10.93;;;32.60;74.30;;;;;;4211707;28;20044;-67
2022/03/10 08:05:47;;;;;;;14.43;11.82;;;32.60;74.30;;;;;;4230514;28;20052;-67
2022/03/10 08:07:52;;;;;;;14.65;11.05;;;32.60;74.50;;;;;;4222057;28;20097;-68
2022/03/10 08:10:01;;;;;;;14.80;11.75;;;32.60;74.60;;;;;;4212571;28;20130;-67
2022/03/10 08:12:05;;;;;;;13.27;11.85;;;32.60;74.20;;;;;;4215406;28;20047;-67
2022/03/10 08:14:10;;;;;;;15.18;12.52;;;32.60;74.90;;;;;;4213827;28;20040;-67
2022/03/10 08:16:16;;;;;;;18.13;13.00;;;32.60;75.00;;;;;;4213503;28;20127;-67
2022/03/10 08:18:21;;;;;;;15.30;12.60;;;32.60;75.20;;;;;;4214484;28;20048;-68
2022/03/10 08:20:25;;;;;;;16.67;12.45;;;32.50;75.00;;;;;;4212260;28;20054;-68
2022/03/10 08:22:35;;;;;;;15.52;12.52;;;32.60;74.80;;;;;;4211457;28;20082;-68
2022/03/10 08:24:41;;;;;;;17.30;12.48;;;32.60;74.40;;;;;;4215080;28;20067;-68
2022/03/10 08:26:48;;;;;;;18.85;12.90;;;32.60;74.80;;;;;;4212985;28;20071;-67
2022/03/10 08:28:54;;;;;;;14.05;12.00;;;32.50;75.10;;;;;;4210033;28;20121;-68
2022/03/10 08:30:59;;;;;;;16.10;12.63;;;32.60;75.20;;;;;;4211676;28;20044;-69
2022/03/10 08:33:03;;;;;;;17.90;12.48;;;32.60;74.90;;;;;;4223685;28;20044;-70
2022/03/10 08:35:12;;;;;;;15.25;11.48;;;32.60;74.20;;;;;;4213224;28;20044;-69
2022/03/10 08:37:18;;;;;;;23.33;13.15;;;32.60;74.40;;;;;;4194960;28;20066;-69
2022/03/10 08:39:22;;;;;;;16.45;12.68;;;32.60;74.80;;;;;;4212964;28;20051;-68
2022/03/10 08:41:27;;;;;;;17.15;12.15;;;32.60;75.00;;;;;;4209941;28;20050;-69
2022/03/10 08:43:32;;;;;;;16.58;12.70;;;32.50;74.90;;;;;;4212319;28;20084;-69
2022/03/10 08:45:37;;;;;;;16.98;12.13;;;32.60;75.20;;;;;;4212377;28;20154;-69
2022/03/10 08:47:42;;;;;;;15.32;11.63;;;32.60;75.30;;;;;;4210325;28;20055;-69
2022/03/10 08:49:47;;;;;;;22.25;12.80;;;32.60;75.70;;;;;;4212141;28;20044;-69
2022/03/10 08:51:51;;;;;;;18.83;12.90;;;32.60;74.50;;;;;;4213982;28;20052;-69
2022/03/10 08:53:58;;;;;;;15.50;11.70;;;32.60;75.20;;;;;;4217158;28;20051;-68
2022/03/10 08:56:07;;;;;;;17.42;13.68;;;32.50;74.90;;;;;;4215184;28;20040;-69
2022/03/10 08:58:11;;;;;;;21.48;15.98;;;32.50;75.30;;;;;;4213821;28;20589;-69
2022/03/10 09:00:18;;;;;;;21.63;16.83;;;32.50;74.90;;;;;;4212176;28;20395;-69
2022/03/10 09:02:26;;;;;;;28.15;22.33;;;32.50;75.20;;;;;;4209391;28;20043;-69
2022/03/10 09:04:33;;;;;;;16.52;14.18;;;32.60;75.60;;;;;;4209382;28;20040;-69
2022/03/10 09:06:39;;;;;;;15.35;13.63;;;32.60;76.20;;;;;;4214574;28;20055;-69
2022/03/10 09:08:45;;;;;;;16.92;13.52;;;32.50;75.40;;;;;;4212695;28;20533;-69
2022/03/10 09:10:49;;;;;;;17.35;13.55;;;32.50;75.80;;;;;;4211712;28;20115;-69
2022/03/10 09:12:56;;;;;;;18.88;14.13;;;32.50;75.80;;;;;;4215741;28;20544;-68
2022/03/10 09:15:02;;;;;;;18.65;12.43;;;32.50;75.80;;;;;;4219038;28;20036;-68
2022/03/10 09:17:07;;;;;;;15.05;12.15;;;32.60;76.10;;;;;;4213349;28;20040;-68
2022/03/10 09:19:11;;;;;;;15.27;12.25;;;32.60;76.20;;;;;;4213008;28;20055;-70
2022/03/10 09:21:16;;;;;;;14.10;11.55;;;32.60;77.20;;;;;;4211271;28;20043;-68
2022/03/10 09:23:21;;;;;;;14.60;12.35;;;32.50;77.10;;;;;;4212774;28;20048;-68
2022/03/10 09:25:29;;;;;;;16.63;12.40;;;32.50;77.20;;;;;;4222591;28;20492;-69
2022/03/10 09:27:33;;;;;;;18.33;12.52;;;32.50;77.30;;;;;;4208788;28;20055;-69
2022/03/10 09:29:38;;;;;;;15.80;11.98;;;32.60;77.20;;;;;;4213419;28;20040;-69
2022/03/10 09:31:44;;;;;;;16.23;12.07;;;32.50;77.00;;;;;;4213169;28;20048;-69
2022/03/10 09:33:48;;;;;;;14.07;12.57;;;32.50;76.60;;;;;;4192257;28;20105;-68
2022/03/10 09:35:53;;;;;;;16.48;12.32;;;32.50;76.70;;;;;;4210195;28;20405;-69
2022/03/10 09:37:59;;;;;;;16.80;12.60;;;32.50;76.30;;;;;;4212035;28;20036;-69
2022/03/10 09:40:04;;;;;;;17.40;11.88;;;32.40;76.90;;;;;;4214483;28;20044;-69
2022/03/10 09:42:11;;;;;;;14.93;11.40;;;32.40;77.00;;;;;;4211552;28;20078;-69
2022/03/10 09:44:20;;;;;;;14.93;11.45;;;32.40;77.20;;;;;;4212072;28;20048;-69
2022/03/10 09:46:24;;;;;;;17.58;12.65;;;32.40;76.80;;;;;;4211374;28;20063;-70
2022/03/10 09:48:28;;;;;;;18.23;13.00;;;32.40;76.70;;;;;;4212136;28;20055;-69
2022/03/10 09:50:39;;;;;;;19.90;12.38;;;32.40;77.20;;;;;;4212323;28;20060;-69
2022/03/10 09:52:44;;;;;;;20.05;12.32;;;32.30;77.30;;;;;;4194851;28;20109;-69
2022/03/10 09:54:49;;;;;;;18.48;12.15;;;32.30;78.00;;;;;;4222615;28;20038;-69
2022/03/10 09:56:57;;;;;;;15.93;11.73;;;32.30;78.30;;;;;;4221841;28;20059;-69
2022/03/10 09:59:05;;;;;;;16.00;12.18;;;32.30;78.10;;;;;;4226430;28;20050;-68
2022/03/10 10:01:13;;;;;;;15.52;12.00;;;32.30;78.00;;;;;;4211933;28;20166;-68
2022/03/10 10:03:21;;;;;;;17.52;12.18;;;32.20;77.80;;;;;;4212063;28;20083;-68
2022/03/10 10:05:27;;;;;;;22.70;13.35;;;32.20;77.50;;;;;;4212333;28;20135;-69
2022/03/10 10:07:32;;;;;;;54.42;22.73;;;32.10;77.30;;;;;;4212128;28;20122;-66
2022/03/10 10:09:43;;;;;;;26.70;14.82;;;32.10;78.20;;;;;;4211685;28;20724;-69
2022/03/10 10:11:47;;;;;;;24.98;15.02;;;32.10;77.60;;;;;;4211790;28;21329;-67
2022/03/10 10:13:52;;;;;;;23.15;14.82;;;32.10;77.70;;;;;;4212563;28;20066;-67
2022/03/10 10:16:06;;;;;;;21.13;13.07;;;32.10;77.50;;;;;;4210604;28;20111;-67
2022/03/10 10:18:14;;;;;;;19.20;13.38;;;32.00;77.80;;;;;;4213142;28;20082;-67
2022/03/10 10:20:50;;;;;;;18.30;12.88;;;32.00;78.20;;;;;;4213989;28;20094;-67
2022/03/10 10:22:56;;;;;;;16.63;12.70;;;32.00;78.40;;;;;;4213938;28;20050;-67
2022/03/10 10:25:05;;;;;;;19.90;12.75;;;32.00;78.50;;;;;;4212715;28;20142;-67
2022/03/10 10:27:32;;;;;;;19.23;13.63;;;31.90;78.60;;;;;;4210000;28;20448;-67
2022/03/10 10:29:46;;;;;;;17.00;13.18;;;31.90;78.80;;;;;;4209796;28;20044;-67
2022/03/10 10:31:50;;;;;;;18.02;12.80;;;31.80;78.90;;;;;;4215719;28;20048;-66
2022/03/10 10:34:14;;;;;;;14.93;13.32;;;31.80;79.10;;;;;;4222273;28;20094;-67
2022/03/10 10:36:24;;;;;;;18.50;13.25;;;31.80;79.50;;;;;;4211283;28;20040;-66
2022/03/10 10:38:32;;;;;;;15.95;13.05;;;31.80;79.70;;;;;;4211529;28;20040;-67
2022/03/10 10:40:36;;;;;;;19.73;13.13;;;31.70;80.20;;;;;;4211733;28;20055;-68
2022/03/10 10:42:43;;;;;;;18.85;13.32;;;31.70;80.20;;;;;;4216469;28;20048;-68
2022/03/10 10:44:47;;;;;;;17.42;13.25;;;31.70;80.40;;;;;;4211569;28;20578;-67
2022/03/10 10:46:58;;;;;;;17.88;14.02;;;31.70;80.60;;;;;;4210010;28;20048;-67
2022/03/10 10:49:18;;;;;;;;;;;31.60;81.60;;;;;;4210098;28;21931;-67